sensor_id;sensor_type;location;lat;lon;timestamp;temperature;humidity
53776;DHT22;44276;49.534;6.378;2023-04-25T00:00:29;7.40;99.90
53776;DHT22;44276;49.534;6.378;2023-04-25T00:02:57;7.40;99.90
53776;DHT22;44276;49.534;6.378;2023-04-25T00:05:27;7.40;99.90
53776;DHT22;44276;49.534;6.378;2023-04-25T00:07:57;7.40;99.90
53776;DHT22;44276;49.534;6.378;2023-04-25T00:10:25;7.40;99.90
53776;DHT22;44276;49.534;6.378;2023-04-25T00:12:53;7.40;99.90
53776;DHT22;44276;49.534;6.378;2023-04-25T00:15:21;7.40;99.90
53776;DHT22;44276;49.534;6.378;2023-04-25T00:17:50;7.40;99.90
53776;DHT22;44276;49.534;6.378;2023-04-25T00:20:19;7.50;99.90
53776;DHT22;44276;49.534;6.378;2023-04-25T00:22:49;7.40;99.90
53776;DHT22;44276;49.534;6.378;2023-04-25T00:25:19;7.50;99.90
53776;DHT22;44276;49.534;6.378;2023-04-25T00:27:47;7.50;99.90
53776;DHT22;44276;49.534;6.378;2023-04-25T00:30:15;7.40;99.90
53776;DHT22;44276;49.534;6.378;2023-04-25T00:32:43;7.40;99.90
53776;DHT22;44276;49.534;6.378;2023-04-25T00:35:12;7.40;99.90
53776;DHT22;44276;49.534;6.378;2023-04-25T00:37:40;7.30;99.90
53776;DHT22;44276;49.534;6.378;2023-04-25T00:40:10;7.30;99.90
53776;DHT22;44276;49.534;6.378;2023-04-25T00:42:39;7.30;99.90
53776;DHT22;44276;49.534;6.378;2023-04-25T00:45:12;7.30;99.90
53776;DHT22;44276;49.534;6.378;2023-04-25T00:47:42;7.20;99.90
53776;DHT22;44276;49.534;6.378;2023-04-25T00:50:11;7.30;99.90
53776;DHT22;44276;49.534;6.378;2023-04-25T00:52:41;7.30;99.90
53776;DHT22;44276;49.534;6.378;2023-04-25T00:55:13;7.30;99.90
53776;DHT22;44276;49.534;6.378;2023-04-25T00:57:42;7.40;99.90
53776;DHT22;44276;49.534;6.378;2023-04-25T01:00:11;7.30;99.90
53776;DHT22;44276;49.534;6.378;2023-04-25T01:02:41;7.30;99.90
53776;DHT22;44276;49.534;6.378;2023-04-25T01:05:11;7.30;99.90
53776;DHT22;44276;49.534;6.378;2023-04-25T01:07:40;7.30;99.90
53776;DHT22;44276;49.534;6.378;2023-04-25T01:10:09;7.20;99.90
53776;DHT22;44276;49.534;6.378;2023-04-25T01:12:38;7.30;99.90
53776;DHT22;44276;49.534;6.378;2023-04-25T01:15:07;7.20;99.90
53776;DHT22;44276;49.534;6.378;2023-04-25T01:17:36;7.10;99.90
53776;DHT22;44276;49.534;6.378;2023-04-25T01:20:05;7.10;99.90
53776;DHT22;44276;49.534;6.378;2023-04-25T01:22:37;7.10;99.90
53776;DHT22;44276;49.534;6.378;2023-04-25T01:25:07;7.10;99.90
53776;DHT22;44276;49.534;6.378;2023-04-25T01:27:37;7.00;99.90
53776;DHT22;44276;49.534;6.378;2023-04-25T01:30:06;7.00;99.90
53776;DHT22;44276;49.534;6.378;2023-04-25T01:32:35;7.00;99.90
53776;DHT22;44276;49.534;6.378;2023-04-25T01:35:06;7.10;99.90
53776;DHT22;44276;49.534;6.378;2023-04-25T01:37:38;7.10;99.90
53776;DHT22;44276;49.534;6.378;2023-04-25T01:40:07;7.10;99.90
53776;DHT22;44276;49.534;6.378;2023-04-25T01:42:40;7.10;99.90
53776;DHT22;44276;49.534;6.378;2023-04-25T01:45:10;7.10;99.90
53776;DHT22;44276;49.534;6.378;2023-04-25T01:47:42;7.10;99.90
53776;DHT22;44276;49.534;6.378;2023-04-25T01:50:13;7.10;99.90
53776;DHT22;44276;49.534;6.378;2023-04-25T01:52:43;7.10;99.90
53776;DHT22;44276;49.534;6.378;2023-04-25T01:55:11;7.10;99.90
53776;DHT22;44276;49.534;6.378;2023-04-25T01:57:40;7.10;99.90
53776;DHT22;44276;49.534;6.378;2023-04-25T02:00:09;7.10;99.90
53776;DHT22;44276;49.534;6.378;2023-04-25T02:02:38;7.10;99.90
53776;DHT22;44276;49.534;6.378;2023-04-25T02:05:08;7.10;99.90
53776;DHT22;44276;49.534;6.378;2023-04-25T02:07:36;7.10;99.90
53776;DHT22;44276;49.534;6.378;2023-04-25T02:10:07;7.10;99.90
53776;DHT22;44276;49.534;6.378;2023-04-25T02:12:36;7.10;99.90
53776;DHT22;44276;49.534;6.378;2023-04-25T02:15:05;7.00;99.90
53776;DHT22;44276;49.534;6.378;2023-04-25T02:17:34;7.00;99.90
53776;DHT22;44276;49.534;6.378;2023-04-25T02:20:02;7.00;99.90
53776;DHT22;44276;49.534;6.378;2023-04-25T02:22:31;7.00;99.90
53776;DHT22;44276;49.534;6.378;2023-04-25T02:25:01;7.00;99.90
53776;DHT22;44276;49.534;6.378;2023-04-25T02:27:32;6.90;99.90
53776;DHT22;44276;49.534;6.378;2023-04-25T02:30:00;6.90;99.90
53776;DHT22;44276;49.534;6.378;2023-04-25T02:32:29;6.90;99.90
53776;DHT22;44276;49.534;6.378;2023-04-25T02:34:57;6.90;99.90
53776;DHT22;44276;49.534;6.378;2023-04-25T02:37:30;6.90;99.90
53776;DHT22;44276;49.534;6.378;2023-04-25T02:39:58;7.00;99.90
53776;DHT22;44276;49.534;6.378;2023-04-25T02:42:27;6.90;99.90
53776;DHT22;44276;49.534;6.378;2023-04-25T02:44:56;6.90;99.90
53776;DHT22;44276;49.534;6.378;2023-04-25T02:47:24;6.90;99.90
53776;DHT22;44276;49.534;6.378;2023-04-25T02:49:53;6.90;99.90
53776;DHT22;44276;49.534;6.378;2023-04-25T02:52:21;6.90;99.90
53776;DHT22;44276;49.534;6.378;2023-04-25T02:54:49;6.90;99.90
53776;DHT22;44276;49.534;6.378;2023-04-25T02:57:17;6.90;99.90
53776;DHT22;44276;49.534;6.378;2023-04-25T02:59:45;6.80;99.90
53776;DHT22;44276;49.534;6.378;2023-04-25T03:02:15;6.90;99.90
53776;DHT22;44276;49.534;6.378;2023-04-25T03:04:43;6.80;99.90
53776;DHT22;44276;49.534;6.378;2023-04-25T03:07:11;6.80;99.90
53776;DHT22;44276;49.534;6.378;2023-04-25T03:09:39;6.80;99.90
53776;DHT22;44276;49.534;6.378;2023-04-25T03:12:07;6.80;99.90
53776;DHT22;44276;49.534;6.378;2023-04-25T03:14:36;6.80;99.90
53776;DHT22;44276;49.534;6.378;2023-04-25T03:17:04;6.80;99.90
53776;DHT22;44276;49.534;6.378;2023-04-25T03:19:33;6.80;99.90
53776;DHT22;44276;49.534;6.378;2023-04-25T03:22:01;6.80;99.90
53776;DHT22;44276;49.534;6.378;2023-04-25T03:24:30;6.80;99.90
53776;DHT22;44276;49.534;6.378;2023-04-25T03:26:58;6.80;99.90
53776;DHT22;44276;49.534;6.378;2023-04-25T03:29:27;6.90;99.90
53776;DHT22;44276;49.534;6.378;2023-04-25T03:31:55;6.90;99.90
53776;DHT22;44276;49.534;6.378;2023-04-25T03:34:23;6.90;99.90
53776;DHT22;44276;49.534;6.378;2023-04-25T03:36:53;6.80;99.90
53776;DHT22;44276;49.534;6.378;2023-04-25T03:39:22;6.90;99.90
53776;DHT22;44276;49.534;6.378;2023-04-25T03:41:50;6.90;99.90
53776;DHT22;44276;49.534;6.378;2023-04-25T03:44:18;6.90;99.90
53776;DHT22;44276;49.534;6.378;2023-04-25T03:46:46;6.90;99.90
53776;DHT22;44276;49.534;6.378;2023-04-25T03:49:14;6.90;99.90
53776;DHT22;44276;49.534;6.378;2023-04-25T03:51:45;6.90;99.90
53776;DHT22;44276;49.534;6.378;2023-04-25T03:54:14;6.90;99.90
53776;DHT22;44276;49.534;6.378;2023-04-25T03:56:42;6.90;99.90
53776;DHT22;44276;49.534;6.378;2023-04-25T03:59:14;6.90;99.90
53776;DHT22;44276;49.534;6.378;2023-04-25T04:01:42;6.90;99.90
53776;DHT22;44276;49.534;6.378;2023-04-25T04:04:10;6.90;99.90
53776;DHT22;44276;49.534;6.378;2023-04-25T04:06:38;6.90;99.90
53776;DHT22;44276;49.534;6.378;2023-04-25T04:09:07;6.90;99.90
53776;DHT22;44276;49.534;6.378;2023-04-25T04:11:39;6.90;99.90
53776;DHT22;44276;49.534;6.378;2023-04-25T04:14:07;6.90;99.90
53776;DHT22;44276;49.534;6.378;2023-04-25T04:16:36;6.90;99.90
53776;DHT22;44276;49.534;6.378;2023-04-25T04:19:04;6.90;99.90
53776;DHT22;44276;49.534;6.378;2023-04-25T04:21:33;6.90;99.90
53776;DHT22;44276;49.534;6.378;2023-04-25T04:24:01;6.80;99.90
53776;DHT22;44276;49.534;6.378;2023-04-25T04:26:29;6.80;99.90
53776;DHT22;44276;49.534;6.378;2023-04-25T04:29:01;6.80;99.90
53776;DHT22;44276;49.534;6.378;2023-04-25T04:31:29;6.80;99.90
53776;DHT22;44276;49.534;6.378;2023-04-25T04:33:59;6.70;99.90
53776;DHT22;44276;49.534;6.378;2023-04-25T04:36:28;6.70;99.90
53776;DHT22;44276;49.534;6.378;2023-04-25T04:38:56;6.60;99.90
53776;DHT22;44276;49.534;6.378;2023-04-25T04:41:24;6.50;99.90
53776;DHT22;44276;49.534;6.378;2023-04-25T04:43:52;6.50;99.90
53776;DHT22;44276;49.534;6.378;2023-04-25T04:46:24;6.40;99.90
53776;DHT22;44276;49.534;6.378;2023-04-25T04:48:52;6.40;99.90
53776;DHT22;44276;49.534;6.378;2023-04-25T04:51:20;6.40;99.90
53776;DHT22;44276;49.534;6.378;2023-04-25T04:53:48;6.40;99.90
53776;DHT22;44276;49.534;6.378;2023-04-25T04:56:16;6.40;99.90
53776;DHT22;44276;49.534;6.378;2023-04-25T04:58:47;6.40;99.90
53776;DHT22;44276;49.534;6.378;2023-04-25T05:01:16;6.50;99.90
53776;DHT22;44276;49.534;6.378;2023-04-25T05:03:45;6.50;99.90
53776;DHT22;44276;49.534;6.378;2023-04-25T05:06:14;6.50;99.90
53776;DHT22;44276;49.534;6.378;2023-04-25T05:08:43;6.50;99.90
53776;DHT22;44276;49.534;6.378;2023-04-25T05:11:11;6.60;99.90
53776;DHT22;44276;49.534;6.378;2023-04-25T05:13:39;6.80;99.90
53776;DHT22;44276;49.534;6.378;2023-04-25T05:16:07;6.90;99.90
53776;DHT22;44276;49.534;6.378;2023-04-25T05:18:36;7.10;99.90
53776;DHT22;44276;49.534;6.378;2023-04-25T05:21:05;7.50;99.90
53776;DHT22;44276;49.534;6.378;2023-04-25T05:23:33;7.90;99.90
53776;DHT22;44276;49.534;6.378;2023-04-25T05:26:02;8.70;99.90
53776;DHT22;44276;49.534;6.378;2023-04-25T05:28:30;9.50;99.90
53776;DHT22;44276;49.534;6.378;2023-04-25T05:30:58;9.90;99.90
53776;DHT22;44276;49.534;6.378;2023-04-25T05:33:26;9.90;99.90
53776;DHT22;44276;49.534;6.378;2023-04-25T05:35:54;10.20;99.90
53776;DHT22;44276;49.534;6.378;2023-04-25T05:38:24;10.50;99.90
53776;DHT22;44276;49.534;6.378;2023-04-25T05:40:52;10.50;99.90
53776;DHT22;44276;49.534;6.378;2023-04-25T05:43:20;10.00;99.90
53776;DHT22;44276;49.534;6.378;2023-04-25T05:45:48;9.50;99.90
53776;DHT22;44276;49.534;6.378;2023-04-25T05:48:17;9.20;99.90
53776;DHT22;44276;49.534;6.378;2023-04-25T05:50:45;9.10;99.90
53776;DHT22;44276;49.534;6.378;2023-04-25T05:53:13;9.10;99.90
53776;DHT22;44276;49.534;6.378;2023-04-25T05:55:42;9.10;99.90
53776;DHT22;44276;49.534;6.378;2023-04-25T05:58:10;9.20;99.90
53776;DHT22;44276;49.534;6.378;2023-04-25T06:00:38;9.20;99.90
53776;DHT22;44276;49.534;6.378;2023-04-25T06:03:08;9.10;99.90
53776;DHT22;44276;49.534;6.378;2023-04-25T06:05:37;9.10;99.90
53776;DHT22;44276;49.534;6.378;2023-04-25T06:08:05;9.00;99.90
53776;DHT22;44276;49.534;6.378;2023-04-25T06:10:33;8.90;99.90
53776;DHT22;44276;49.534;6.378;2023-04-25T06:13:03;8.90;99.90
53776;DHT22;44276;49.534;6.378;2023-04-25T06:15:32;8.90;99.90
53776;DHT22;44276;49.534;6.378;2023-04-25T06:18:00;8.90;99.90
53776;DHT22;44276;49.534;6.378;2023-04-25T06:20:29;9.10;99.90
53776;DHT22;44276;49.534;6.378;2023-04-25T06:22:57;9.30;99.90
53776;DHT22;44276;49.534;6.378;2023-04-25T06:25:25;9.40;99.90
53776;DHT22;44276;49.534;6.378;2023-04-25T06:27:53;9.60;99.90
53776;DHT22;44276;49.534;6.378;2023-04-25T06:30:23;9.70;99.90
53776;DHT22;44276;49.534;6.378;2023-04-25T06:32:52;9.70;99.90
53776;DHT22;44276;49.534;6.378;2023-04-25T06:35:20;9.80;99.90
53776;DHT22;44276;49.534;6.378;2023-04-25T06:37:48;9.70;99.90
53776;DHT22;44276;49.534;6.378;2023-04-25T06:40:16;9.90;99.90
53776;DHT22;44276;49.534;6.378;2023-04-25T06:42:45;9.90;99.90
53776;DHT22;44276;49.534;6.378;2023-04-25T06:45:13;9.90;99.90
53776;DHT22;44276;49.534;6.378;2023-04-25T06:47:42;9.70;99.90
53776;DHT22;44276;49.534;6.378;2023-04-25T06:50:10;9.60;99.90
53776;DHT22;44276;49.534;6.378;2023-04-25T06:52:38;9.50;99.90
53776;DHT22;44276;49.534;6.378;2023-04-25T06:55:07;9.40;99.90
53776;DHT22;44276;49.534;6.378;2023-04-25T06:57:35;9.20;99.90
53776;DHT22;44276;49.534;6.378;2023-04-25T07:00:05;9.20;99.90
53776;DHT22;44276;49.534;6.378;2023-04-25T07:02:36;9.20;99.90
53776;DHT22;44276;49.534;6.378;2023-04-25T07:05:05;9.20;99.90
53776;DHT22;44276;49.534;6.378;2023-04-25T07:07:34;9.10;99.90
53776;DHT22;44276;49.534;6.378;2023-04-25T07:10:02;9.20;99.90
53776;DHT22;44276;49.534;6.378;2023-04-25T07:12:31;9.40;99.90
53776;DHT22;44276;49.534;6.378;2023-04-25T07:14:59;9.50;99.90
53776;DHT22;44276;49.534;6.378;2023-04-25T07:17:32;9.50;99.90
53776;DHT22;44276;49.534;6.378;2023-04-25T07:20:01;9.60;99.90
53776;DHT22;44276;49.534;6.378;2023-04-25T07:22:31;9.40;99.90
53776;DHT22;44276;49.534;6.378;2023-04-25T07:24:59;9.40;99.90
53776;DHT22;44276;49.534;6.378;2023-04-25T07:27:27;9.40;99.90
53776;DHT22;44276;49.534;6.378;2023-04-25T07:29:56;9.30;99.90
53776;DHT22;44276;49.534;6.378;2023-04-25T07:32:25;9.30;99.90
53776;DHT22;44276;49.534;6.378;2023-04-25T07:34:54;9.40;99.90
53776;DHT22;44276;49.534;6.378;2023-04-25T07:37:22;9.40;99.90
53776;DHT22;44276;49.534;6.378;2023-04-25T07:39:51;9.50;99.90
53776;DHT22;44276;49.534;6.378;2023-04-25T07:42:19;9.40;99.90
53776;DHT22;44276;49.534;6.378;2023-04-25T07:44:47;9.40;99.90
53776;DHT22;44276;49.534;6.378;2023-04-25T07:47:16;9.30;99.90
53776;DHT22;44276;49.534;6.378;2023-04-25T07:49:46;9.30;99.90
53776;DHT22;44276;49.534;6.378;2023-04-25T07:52:14;9.30;99.90
53776;DHT22;44276;49.534;6.378;2023-04-25T07:54:42;9.50;99.90
53776;DHT22;44276;49.534;6.378;2023-04-25T07:57:11;9.60;99.90
53776;DHT22;44276;49.534;6.378;2023-04-25T07:59:40;9.70;99.90
53776;DHT22;44276;49.534;6.378;2023-04-25T08:02:08;9.80;99.90
53776;DHT22;44276;49.534;6.378;2023-04-25T08:04:36;9.80;99.90
53776;DHT22;44276;49.534;6.378;2023-04-25T08:07:05;9.70;99.90
53776;DHT22;44276;49.534;6.378;2023-04-25T08:09:33;9.50;99.90
53776;DHT22;44276;49.534;6.378;2023-04-25T08:12:03;9.40;99.90
53776;DHT22;44276;49.534;6.378;2023-04-25T08:14:33;9.30;99.90
53776;DHT22;44276;49.534;6.378;2023-04-25T08:17:04;9.20;99.90
53776;DHT22;44276;49.534;6.378;2023-04-25T08:19:32;9.00;99.90
53776;DHT22;44276;49.534;6.378;2023-04-25T08:22:00;8.90;99.90
53776;DHT22;44276;49.534;6.378;2023-04-25T08:24:28;8.80;99.90
53776;DHT22;44276;49.534;6.378;2023-04-25T08:26:57;8.70;99.90
53776;DHT22;44276;49.534;6.378;2023-04-25T08:29:25;8.80;99.90
53776;DHT22;44276;49.534;6.378;2023-04-25T08:31:56;8.90;99.90
53776;DHT22;44276;49.534;6.378;2023-04-25T08:34:24;9.10;99.90
53776;DHT22;44276;49.534;6.378;2023-04-25T08:36:53;9.30;99.90
53776;DHT22;44276;49.534;6.378;2023-04-25T08:39:21;9.50;99.90
53776;DHT22;44276;49.534;6.378;2023-04-25T08:41:49;9.70;99.90
53776;DHT22;44276;49.534;6.378;2023-04-25T08:44:19;10.00;96.50
53776;DHT22;44276;49.534;6.378;2023-04-25T08:46:49;10.20;93.10
53776;DHT22;44276;49.534;6.378;2023-04-25T08:49:18;10.40;83.80
53776;DHT22;44276;49.534;6.378;2023-04-25T08:51:47;10.70;77.80
53776;DHT22;44276;49.534;6.378;2023-04-25T08:54:19;11.00;75.30
53776;DHT22;44276;49.534;6.378;2023-04-25T08:57:02;11.50;61.60
53776;DHT22;44276;49.534;6.378;2023-04-25T08:59:32;12.10;56.20
53776;DHT22;44276;49.534;6.378;2023-04-25T09:02:02;12.30;50.50
53776;DHT22;44276;49.534;6.378;2023-04-25T09:04:32;12.50;50.20
53776;DHT22;44276;49.534;6.378;2023-04-25T09:07:00;12.80;45.80
53776;DHT22;44276;49.534;6.378;2023-04-25T09:09:29;12.90;45.30
53776;DHT22;44276;49.534;6.378;2023-04-25T09:11:57;12.80;42.20
53776;DHT22;44276;49.534;6.378;2023-04-25T09:14:26;12.60;45.20
53776;DHT22;44276;49.534;6.378;2023-04-25T09:16:59;12.40;43.80
53776;DHT22;44276;49.534;6.378;2023-04-25T09:19:33;12.50;42.50
53776;DHT22;44276;49.534;6.378;2023-04-25T09:22:07;12.50;42.80
53776;DHT22;44276;49.534;6.378;2023-04-25T09:24:37;12.90;42.20
53776;DHT22;44276;49.534;6.378;2023-04-25T09:27:07;13.60;40.00
53776;DHT22;44276;49.534;6.378;2023-04-25T09:29:38;13.80;36.10
53776;DHT22;44276;49.534;6.378;2023-04-25T09:32:25;13.50;35.70
53776;DHT22;44276;49.534;6.378;2023-04-25T09:34:55;13.10;37.60
53776;DHT22;44276;49.534;6.378;2023-04-25T09:37:26;13.00;38.70
53776;DHT22;44276;49.534;6.378;2023-04-25T09:39:57;12.80;39.40
53776;DHT22;44276;49.534;6.378;2023-04-25T09:42:29;12.80;39.50
53776;DHT22;44276;49.534;6.378;2023-04-25T09:44:58;12.70;40.90
53776;DHT22;44276;49.534;6.378;2023-04-25T09:47:28;12.80;42.00
53776;DHT22;44276;49.534;6.378;2023-04-25T09:49:58;12.60;42.10
53776;DHT22;44276;49.534;6.378;2023-04-25T09:52:26;12.30;42.80
53776;DHT22;44276;49.534;6.378;2023-04-25T09:54:54;12.00;45.50
53776;DHT22;44276;49.534;6.378;2023-04-25T09:57:24;11.80;47.70
53776;DHT22;44276;49.534;6.378;2023-04-25T09:59:53;11.80;50.60
53776;DHT22;44276;49.534;6.378;2023-04-25T10:02:24;11.90;48.10
53776;DHT22;44276;49.534;6.378;2023-04-25T10:04:55;12.20;45.50
53776;DHT22;44276;49.534;6.378;2023-04-25T10:07:26;12.60;46.50
53776;DHT22;44276;49.534;6.378;2023-04-25T10:10:00;13.00;41.30
53776;DHT22;44276;49.534;6.378;2023-04-25T10:12:30;13.00;39.90
53776;DHT22;44276;49.534;6.378;2023-04-25T10:15:01;13.00;40.70
53776;DHT22;44276;49.534;6.378;2023-04-25T10:17:31;12.80;41.10
53776;DHT22;44276;49.534;6.378;2023-04-25T10:20:02;12.90;42.30
53776;DHT22;44276;49.534;6.378;2023-04-25T10:22:35;13.20;38.60
53776;DHT22;44276;49.534;6.378;2023-04-25T10:25:06;13.40;37.50
53776;DHT22;44276;49.534;6.378;2023-04-25T10:27:36;13.70;35.50
53776;DHT22;44276;49.534;6.378;2023-04-25T10:30:06;14.20;33.90
53776;DHT22;44276;49.534;6.378;2023-04-25T10:32:38;14.60;31.50
53776;DHT22;44276;49.534;6.378;2023-04-25T10:35:14;15.00;31.30
53776;DHT22;44276;49.534;6.378;2023-04-25T10:38:04;16.60;27.40
53776;DHT22;44276;49.534;6.378;2023-04-25T10:40:39;16.90;24.90
53776;DHT22;44276;49.534;6.378;2023-04-25T10:43:34;17.80;22.10
53776;DHT22;44276;49.534;6.378;2023-04-25T10:46:13;17.90;22.70
53776;DHT22;44276;49.534;6.378;2023-04-25T10:48:50;17.50;23.00
53776;DHT22;44276;49.534;6.378;2023-04-25T10:51:21;17.70;21.50
53776;DHT22;44276;49.534;6.378;2023-04-25T10:53:59;18.40;22.40
53776;DHT22;44276;49.534;6.378;2023-04-25T10:56:30;19.10;20.40
53776;DHT22;44276;49.534;6.378;2023-04-25T10:59:04;19.10;20.80
53776;DHT22;44276;49.534;6.378;2023-04-25T11:01:41;19.80;19.90
53776;DHT22;44276;49.534;6.378;2023-04-25T11:04:21;18.90;20.40
53776;DHT22;44276;49.534;6.378;2023-04-25T11:07:00;17.70;21.20
53776;DHT22;44276;49.534;6.378;2023-04-25T11:09:39;17.10;21.70
53776;DHT22;44276;49.534;6.378;2023-04-25T11:12:09;18.00;20.20
53776;DHT22;44276;49.534;6.378;2023-04-25T11:14:38;18.80;18.00
53776;DHT22;44276;49.534;6.378;2023-04-25T11:17:11;18.10;20.20
53776;DHT22;44276;49.534;6.378;2023-04-25T11:19:40;17.60;19.70
53776;DHT22;44276;49.534;6.378;2023-04-25T11:22:10;17.70;19.80
53776;DHT22;44276;49.534;6.378;2023-04-25T11:24:39;17.60;20.70
53776;DHT22;44276;49.534;6.378;2023-04-25T11:27:08;17.10;20.50
53776;DHT22;44276;49.534;6.378;2023-04-25T11:29:36;16.50;21.10
53776;DHT22;44276;49.534;6.378;2023-04-25T11:32:04;16.30;22.60
53776;DHT22;44276;49.534;6.378;2023-04-25T11:34:33;16.10;22.50
53776;DHT22;44276;49.534;6.378;2023-04-25T11:37:02;17.40;20.90
53776;DHT22;44276;49.534;6.378;2023-04-25T11:39:31;19.80;17.90
53776;DHT22;44276;49.534;6.378;2023-04-25T11:42:00;21.60;16.00
53776;DHT22;44276;49.534;6.378;2023-04-25T11:44:38;22.60;15.30
53776;DHT22;44276;49.534;6.378;2023-04-25T11:47:07;21.10;15.40
53776;DHT22;44276;49.534;6.378;2023-04-25T11:49:35;18.70;18.80
53776;DHT22;44276;49.534;6.378;2023-04-25T11:52:06;17.40;18.80
53776;DHT22;44276;49.534;6.378;2023-04-25T11:54:35;16.30;21.00
53776;DHT22;44276;49.534;6.378;2023-04-25T11:57:06;15.70;22.60
53776;DHT22;44276;49.534;6.378;2023-04-25T11:59:34;15.10;22.30
53776;DHT22;44276;49.534;6.378;2023-04-25T12:02:03;14.60;23.50
53776;DHT22;44276;49.534;6.378;2023-04-25T12:04:33;14.00;24.50
53776;DHT22;44276;49.534;6.378;2023-04-25T12:07:03;13.60;24.90
53776;DHT22;44276;49.534;6.378;2023-04-25T12:09:33;13.50;26.20
53776;DHT22;44276;49.534;6.378;2023-04-25T12:12:02;13.50;25.20
53776;DHT22;44276;49.534;6.378;2023-04-25T12:14:33;13.60;25.40
53776;DHT22;44276;49.534;6.378;2023-04-25T12:17:04;13.90;25.50
53776;DHT22;44276;49.534;6.378;2023-04-25T12:19:36;14.40;24.60
53776;DHT22;44276;49.534;6.378;2023-04-25T12:22:19;15.00;23.60
53776;DHT22;44276;49.534;6.378;2023-04-25T12:24:49;15.50;22.80
53776;DHT22;44276;49.534;6.378;2023-04-25T12:27:19;16.60;21.30
53776;DHT22;44276;49.534;6.378;2023-04-25T12:29:53;16.90;19.60
53776;DHT22;44276;49.534;6.378;2023-04-25T12:32:22;16.40;21.50
53776;DHT22;44276;49.534;6.378;2023-04-25T12:34:50;16.40;22.70
53776;DHT22;44276;49.534;6.378;2023-04-25T12:37:19;16.20;22.20
53776;DHT22;44276;49.534;6.378;2023-04-25T12:39:47;15.70;23.80
53776;DHT22;44276;49.534;6.378;2023-04-25T12:42:15;15.30;23.70
53776;DHT22;44276;49.534;6.378;2023-04-25T12:44:44;14.90;24.80
53776;DHT22;44276;49.534;6.378;2023-04-25T12:47:14;15.80;23.00
53776;DHT22;44276;49.534;6.378;2023-04-25T12:49:42;17.10;20.50
53776;DHT22;44276;49.534;6.378;2023-04-25T12:52:11;17.10;20.10
53776;DHT22;44276;49.534;6.378;2023-04-25T12:54:39;17.10;20.10
53776;DHT22;44276;49.534;6.378;2023-04-25T12:57:07;17.60;19.20
53776;DHT22;44276;49.534;6.378;2023-04-25T12:59:35;17.00;19.50
53776;DHT22;44276;49.534;6.378;2023-04-25T13:02:03;16.10;20.40
53776;DHT22;44276;49.534;6.378;2023-04-25T13:04:34;15.80;21.20
53776;DHT22;44276;49.534;6.378;2023-04-25T13:07:09;15.60;21.50
53776;DHT22;44276;49.534;6.378;2023-04-25T13:09:40;15.20;22.40
53776;DHT22;44276;49.534;6.378;2023-04-25T13:12:10;15.10;22.50
53776;DHT22;44276;49.534;6.378;2023-04-25T13:14:39;15.30;22.50
53776;DHT22;44276;49.534;6.378;2023-04-25T13:17:07;15.60;21.40
53776;DHT22;44276;49.534;6.378;2023-04-25T13:19:37;15.50;21.60
53776;DHT22;44276;49.534;6.378;2023-04-25T13:22:06;15.40;21.90
53776;DHT22;44276;49.534;6.378;2023-04-25T13:24:34;15.30;22.40
53776;DHT22;44276;49.534;6.378;2023-04-25T13:27:02;15.20;21.60
53776;DHT22;44276;49.534;6.378;2023-04-25T13:29:30;14.80;23.40
53776;DHT22;44276;49.534;6.378;2023-04-25T13:32:01;14.70;23.10
53776;DHT22;44276;49.534;6.378;2023-04-25T13:34:29;14.80;23.30
53776;DHT22;44276;49.534;6.378;2023-04-25T13:36:59;15.10;21.80
53776;DHT22;44276;49.534;6.378;2023-04-25T13:39:28;15.60;22.10
53776;DHT22;44276;49.534;6.378;2023-04-25T13:41:56;15.60;21.70
53776;DHT22;44276;49.534;6.378;2023-04-25T13:44:24;14.90;22.70
53776;DHT22;44276;49.534;6.378;2023-04-25T13:46:52;14.40;22.60
53776;DHT22;44276;49.534;6.378;2023-04-25T13:49:20;14.20;24.20
53776;DHT22;44276;49.534;6.378;2023-04-25T13:51:49;14.10;23.30
53776;DHT22;44276;49.534;6.378;2023-04-25T13:54:19;14.00;24.20
53776;DHT22;44276;49.534;6.378;2023-04-25T13:56:47;14.20;22.70
53776;DHT22;44276;49.534;6.378;2023-04-25T13:59:15;14.00;22.80
53776;DHT22;44276;49.534;6.378;2023-04-25T14:01:43;14.40;23.40
53776;DHT22;44276;49.534;6.378;2023-04-25T14:04:11;14.70;21.60
53776;DHT22;44276;49.534;6.378;2023-04-25T14:06:40;15.00;21.70
53776;DHT22;44276;49.534;6.378;2023-04-25T14:09:08;15.40;20.30
53776;DHT22;44276;49.534;6.378;2023-04-25T14:11:38;15.20;20.90
53776;DHT22;44276;49.534;6.378;2023-04-25T14:14:08;14.80;22.10
53776;DHT22;44276;49.534;6.378;2023-04-25T14:16:36;14.50;21.80
53776;DHT22;44276;49.534;6.378;2023-04-25T14:19:05;14.80;20.60
53776;DHT22;44276;49.534;6.378;2023-04-25T14:21:33;14.60;21.40
53776;DHT22;44276;49.534;6.378;2023-04-25T14:24:01;14.80;21.10
53776;DHT22;44276;49.534;6.378;2023-04-25T14:26:31;15.00;22.50
53776;DHT22;44276;49.534;6.378;2023-04-25T14:29:02;15.20;20.50
53776;DHT22;44276;49.534;6.378;2023-04-25T14:31:31;15.10;20.80
53776;DHT22;44276;49.534;6.378;2023-04-25T14:33:59;14.90;21.40
53776;DHT22;44276;49.534;6.378;2023-04-25T14:36:28;15.00;20.10
53776;DHT22;44276;49.534;6.378;2023-04-25T14:38:57;15.30;20.50
53776;DHT22;44276;49.534;6.378;2023-04-25T14:41:25;16.10;18.90
53776;DHT22;44276;49.534;6.378;2023-04-25T14:43:54;16.30;20.10
53776;DHT22;44276;49.534;6.378;2023-04-25T14:46:27;16.40;18.50
53776;DHT22;44276;49.534;6.378;2023-04-25T14:48:55;16.00;17.40
53776;DHT22;44276;49.534;6.378;2023-04-25T14:51:27;16.10;18.30
53776;DHT22;44276;49.534;6.378;2023-04-25T14:53:55;16.00;17.90
53776;DHT22;44276;49.534;6.378;2023-04-25T14:56:23;15.70;16.90
53776;DHT22;44276;49.534;6.378;2023-04-25T14:58:55;15.30;18.20
53776;DHT22;44276;49.534;6.378;2023-04-25T15:01:23;15.20;18.50
53776;DHT22;44276;49.534;6.378;2023-04-25T15:03:52;14.70;19.70
53776;DHT22;44276;49.534;6.378;2023-04-25T15:06:21;14.60;19.30
53776;DHT22;44276;49.534;6.378;2023-04-25T15:08:52;14.30;20.10
53776;DHT22;44276;49.534;6.378;2023-04-25T15:11:21;14.10;19.30
53776;DHT22;44276;49.534;6.378;2023-04-25T15:13:49;13.80;20.00
53776;DHT22;44276;49.534;6.378;2023-04-25T15:16:18;13.60;20.80
53776;DHT22;44276;49.534;6.378;2023-04-25T15:18:49;13.30;20.20
53776;DHT22;44276;49.534;6.378;2023-04-25T15:21:31;13.00;21.90
53776;DHT22;44276;49.534;6.378;2023-04-25T15:24:06;13.00;21.50
53776;DHT22;44276;49.534;6.378;2023-04-25T15:26:35;13.00;20.70
53776;DHT22;44276;49.534;6.378;2023-04-25T15:29:04;12.80;20.40
53776;DHT22;44276;49.534;6.378;2023-04-25T15:31:33;12.70;21.00
53776;DHT22;44276;49.534;6.378;2023-04-25T15:34:03;12.50;21.10
53776;DHT22;44276;49.534;6.378;2023-04-25T15:36:35;12.40;21.10
53776;DHT22;44276;49.534;6.378;2023-04-25T15:39:03;12.50;21.90
53776;DHT22;44276;49.534;6.378;2023-04-25T15:41:33;12.60;21.00
53776;DHT22;44276;49.534;6.378;2023-04-25T15:44:03;12.60;20.20
53776;DHT22;44276;49.534;6.378;2023-04-25T15:46:33;12.50;19.90
53776;DHT22;44276;49.534;6.378;2023-04-25T15:49:03;12.60;20.50
53776;DHT22;44276;49.534;6.378;2023-04-25T15:51:31;12.80;20.00
53776;DHT22;44276;49.534;6.378;2023-04-25T15:54:00;12.80;20.70